sensor_id;sensor_type;location;lat;lon;timestamp;temperature;humidity
69393;SHT31;56582;44.624;20.378;2024-03-02T00:00:28;9.49;82.10
69393;SHT31;56582;44.624;20.378;2024-03-02T00:02:56;9.43;82.26
69393;SHT31;56582;44.624;20.378;2024-03-02T00:05:22;9.52;81.81
69393;SHT31;56582;44.624;20.378;2024-03-02T00:07:56;9.53;81.62
69393;SHT31;56582;44.624;20.378;2024-03-02T00:10:26;9.54;82.24
69393;SHT31;56582;44.624;20.378;2024-03-02T00:12:57;9.50;82.40
69393;SHT31;56582;44.624;20.378;2024-03-02T00:18:18;9.47;82.23
69393;SHT31;56582;44.624;20.378;2024-03-02T00:20:45;9.46;82.48
69393;SHT31;56582;44.624;20.378;2024-03-02T00:23:14;9.49;82.40
69393;SHT31;56582;44.624;20.378;2024-03-02T00:25:43;9.47;82.77
69393;SHT31;56582;44.624;20.378;2024-03-02T00:28:30;9.43;82.70
69393;SHT31;56582;44.624;20.378;2024-03-02T00:31:12;9.39;83.04
69393;SHT31;56582;44.624;20.378;2024-03-02T00:33:41;9.39;83.15
69393;SHT31;56582;44.624;20.378;2024-03-02T00:36:08;9.35;83.02
69393;SHT31;56582;44.624;20.378;2024-03-02T00:38:56;9.43;82.80
69393;SHT31;56582;44.624;20.378;2024-03-02T00:41:27;9.46;82.73
69393;SHT31;56582;44.624;20.378;2024-03-02T00:44:12;9.43;82.64
69393;SHT31;56582;44.624;20.378;2024-03-02T00:46:39;9.46;82.51
69393;SHT31;56582;44.624;20.378;2024-03-02T00:49:25;9.43;82.68
69393;SHT31;56582;44.624;20.378;2024-03-02T00:51:54;9.40;82.67
69393;SHT31;56582;44.624;20.378;2024-03-02T00:54:21;9.38;82.77
69393;SHT31;56582;44.624;20.378;2024-03-02T00:56:49;9.36;83.04
69393;SHT31;56582;44.624;20.378;2024-03-02T00:59:15;9.38;82.93
69393;SHT31;56582;44.624;20.378;2024-03-02T01:01:41;9.35;83.21
69393;SHT31;56582;44.624;20.378;2024-03-02T01:04:07;9.40;83.17
69393;SHT31;56582;44.624;20.378;2024-03-02T01:06:33;9.44;82.99
69393;SHT31;56582;44.624;20.378;2024-03-02T01:08:59;9.40;83.05
69393;SHT31;56582;44.624;20.378;2024-03-02T01:11:25;9.40;83.09
69393;SHT31;56582;44.624;20.378;2024-03-02T01:13:54;9.43;83.14
69393;SHT31;56582;44.624;20.378;2024-03-02T01:16:20;9.42;83.49
69393;SHT31;56582;44.624;20.378;2024-03-02T01:18:45;9.32;83.77
69393;SHT31;56582;44.624;20.378;2024-03-02T01:21:11;9.42;83.47
69393;SHT31;56582;44.624;20.378;2024-03-02T01:23:37;9.36;83.86
69393;SHT31;56582;44.624;20.378;2024-03-02T01:26:10;9.36;84.00
69393;SHT31;56582;44.624;20.378;2024-03-02T01:28:35;9.36;84.03
69393;SHT31;56582;44.624;20.378;2024-03-02T01:31:01;9.35;84.16
69393;SHT31;56582;44.624;20.378;2024-03-02T01:33:27;9.39;84.07
69393;SHT31;56582;44.624;20.378;2024-03-02T01:35:53;9.40;84.03
69393;SHT31;56582;44.624;20.378;2024-03-02T01:38:18;9.42;84.14
69393;SHT31;56582;44.624;20.378;2024-03-02T01:40:44;9.43;84.20
69393;SHT31;56582;44.624;20.378;2024-03-02T01:43:10;9.36;84.12
69393;SHT31;56582;44.624;20.378;2024-03-02T01:45:36;9.42;84.35
69393;SHT31;56582;44.624;20.378;2024-03-02T01:48:04;9.40;84.53
69393;SHT31;56582;44.624;20.378;2024-03-02T01:50:33;9.38;84.53
69393;SHT31;56582;44.624;20.378;2024-03-02T01:52:59;9.42;84.51
69393;SHT31;56582;44.624;20.378;2024-03-02T01:55:26;9.52;84.40
69393;SHT31;56582;44.624;20.378;2024-03-02T01:57:53;9.46;84.30
69393;SHT31;56582;44.624;20.378;2024-03-02T02:00:19;9.42;84.69
69393;SHT31;56582;44.624;20.378;2024-03-02T02:02:46;9.42;84.88
69393;SHT31;56582;44.624;20.378;2024-03-02T02:05:13;9.40;84.99
69393;SHT31;56582;44.624;20.378;2024-03-02T02:07:42;9.38;85.02
69393;SHT31;56582;44.624;20.378;2024-03-02T02:10:09;9.32;85.39
69393;SHT31;56582;44.624;20.378;2024-03-02T02:12:36;9.35;85.35
69393;SHT31;56582;44.624;20.378;2024-03-02T02:15:03;9.31;85.52
69393;SHT31;56582;44.624;20.378;2024-03-02T02:17:28;9.28;85.81
69393;SHT31;56582;44.624;20.378;2024-03-02T02:19:54;9.26;86.16
69393;SHT31;56582;44.624;20.378;2024-03-02T02:22:20;9.25;86.31
69393;SHT31;56582;44.624;20.378;2024-03-02T02:24:46;9.23;86.52
69393;SHT31;56582;44.624;20.378;2024-03-02T02:27:12;9.22;86.59
69393;SHT31;56582;44.624;20.378;2024-03-02T02:29:40;9.21;86.90
69393;SHT31;56582;44.624;20.378;2024-03-02T02:32:06;9.26;86.87
69393;SHT31;56582;44.624;20.378;2024-03-02T02:34:32;9.23;86.92
69393;SHT31;56582;44.624;20.378;2024-03-02T02:36:57;9.23;86.88
69393;SHT31;56582;44.624;20.378;2024-03-02T02:39:23;9.19;87.06
69393;SHT31;56582;44.624;20.378;2024-03-02T02:41:48;9.21;86.82
69393;SHT31;56582;44.624;20.378;2024-03-02T02:44:14;9.18;86.80
69393;SHT31;56582;44.624;20.378;2024-03-02T02:46:40;9.22;86.84
69393;SHT31;56582;44.624;20.378;2024-03-02T02:49:06;9.23;86.54
69393;SHT31;56582;44.624;20.378;2024-03-02T02:51:32;9.25;86.42
69393;SHT31;56582;44.624;20.378;2024-03-02T02:53:57;9.25;86.10
69393;SHT31;56582;44.624;20.378;2024-03-02T02:56:23;9.22;86.22
69393;SHT31;56582;44.624;20.378;2024-03-02T02:58:48;9.25;85.87
69393;SHT31;56582;44.624;20.378;2024-03-02T03:01:17;9.23;85.82
69393;SHT31;56582;44.624;20.378;2024-03-02T03:03:44;9.16;85.97
69393;SHT31;56582;44.624;20.378;2024-03-02T03:06:10;9.19;85.90
69393;SHT31;56582;44.624;20.378;2024-03-02T03:08:35;9.16;85.98
69393;SHT31;56582;44.624;20.378;2024-03-02T03:11:01;9.23;85.93
69393;SHT31;56582;44.624;20.378;2024-03-02T03:13:26;9.19;85.88
69393;SHT31;56582;44.624;20.378;2024-03-02T03:15:52;9.23;86.20
69393;SHT31;56582;44.624;20.378;2024-03-02T03:18:18;9.21;86.19
69393;SHT31;56582;44.624;20.378;2024-03-02T03:20:46;9.16;86.07
69393;SHT31;56582;44.624;20.378;2024-03-02T03:23:12;9.19;86.19
69393;SHT31;56582;44.624;20.378;2024-03-02T03:25:41;9.16;86.29
69393;SHT31;56582;44.624;20.378;2024-03-02T03:28:07;9.12;86.55
69393;SHT31;56582;44.624;20.378;2024-03-02T03:30:36;9.07;86.80
69393;SHT31;56582;44.624;20.378;2024-03-02T03:33:02;9.10;86.79
69393;SHT31;56582;44.624;20.378;2024-03-02T03:35:27;9.08;86.84
69393;SHT31;56582;44.624;20.378;2024-03-02T03:37:53;9.04;87.15
69393;SHT31;56582;44.624;20.378;2024-03-02T03:40:18;9.01;87.23
69393;SHT31;56582;44.624;20.378;2024-03-02T03:42:44;9.10;87.10
69393;SHT31;56582;44.624;20.378;2024-03-02T03:45:10;9.05;87.24
69393;SHT31;56582;44.624;20.378;2024-03-02T03:47:35;9.05;87.32
69393;SHT31;56582;44.624;20.378;2024-03-02T03:50:01;9.07;87.45
69393;SHT31;56582;44.624;20.378;2024-03-02T03:52:29;9.10;87.33
69393;SHT31;56582;44.624;20.378;2024-03-02T03:54:55;9.07;87.41
69393;SHT31;56582;44.624;20.378;2024-03-02T03:57:20;9.16;87.24
69393;SHT31;56582;44.624;20.378;2024-03-02T03:59:46;9.15;87.48
69393;SHT31;56582;44.624;20.378;2024-03-02T04:02:12;9.19;87.25
69393;SHT31;56582;44.624;20.378;2024-03-02T04:04:38;9.14;87.52
69393;SHT31;56582;44.624;20.378;2024-03-02T04:07:03;9.15;87.44
69393;SHT31;56582;44.624;20.378;2024-03-02T04:09:29;9.15;87.55
69393;SHT31;56582;44.624;20.378;2024-03-02T04:11:55;9.05;88.03
69393;SHT31;56582;44.624;20.378;2024-03-02T04:14:20;9.11;88.03
69393;SHT31;56582;44.624;20.378;2024-03-02T04:16:46;9.11;88.17
69393;SHT31;56582;44.624;20.378;2024-03-02T04:19:11;9.14;87.88
69393;SHT31;56582;44.624;20.378;2024-03-02T04:21:37;9.14;87.98
69393;SHT31;56582;44.624;20.378;2024-03-02T04:24:02;9.15;88.00
69393;SHT31;56582;44.624;20.378;2024-03-02T04:26:28;9.11;88.25
69393;SHT31;56582;44.624;20.378;2024-03-02T04:28:54;9.04;88.40
69393;SHT31;56582;44.624;20.378;2024-03-02T04:31:20;9.05;88.38
69393;SHT31;56582;44.624;20.378;2024-03-02T04:33:46;9.02;88.43
69393;SHT31;56582;44.624;20.378;2024-03-02T04:36:11;9.00;88.45
69393;SHT31;56582;44.624;20.378;2024-03-02T04:38:38;9.04;88.66
69393;SHT31;56582;44.624;20.378;2024-03-02T04:41:04;8.94;88.78
69393;SHT31;56582;44.624;20.378;2024-03-02T04:43:31;9.04;88.54
69393;SHT31;56582;44.624;20.378;2024-03-02T04:45:58;8.98;88.65
69393;SHT31;56582;44.624;20.378;2024-03-02T04:48:24;9.01;88.46
69393;SHT31;56582;44.624;20.378;2024-03-02T04:50:49;8.89;88.65
69393;SHT31;56582;44.624;20.378;2024-03-02T04:53:15;8.89;88.83
69393;SHT31;56582;44.624;20.378;2024-03-02T04:55:40;8.92;88.95
69393;SHT31;56582;44.624;20.378;2024-03-02T04:58:06;8.82;88.92
69393;SHT31;56582;44.624;20.378;2024-03-02T05:00:32;8.77;89.00
69393;SHT31;56582;44.624;20.378;2024-03-02T05:02:58;8.68;89.30
69393;SHT31;56582;44.624;20.378;2024-03-02T05:05:23;8.71;89.36
69393;SHT31;56582;44.624;20.378;2024-03-02T05:07:49;8.70;89.28
69393;SHT31;56582;44.624;20.378;2024-03-02T05:10:15;8.70;89.20
69393;SHT31;56582;44.624;20.378;2024-03-02T05:12:41;8.77;89.00
69393;SHT31;56582;44.624;20.378;2024-03-02T05:15:06;8.77;88.84
69393;SHT31;56582;44.624;20.378;2024-03-02T05:17:38;8.70;88.80
69393;SHT31;56582;44.624;20.378;2024-03-02T05:20:06;8.68;88.72
69393;SHT31;56582;44.624;20.378;2024-03-02T05:22:33;8.61;89.10
69393;SHT31;56582;44.624;20.378;2024-03-02T05:24:59;8.59;89.24
69393;SHT31;56582;44.624;20.378;2024-03-02T05:27:26;8.44;89.53
69393;SHT31;56582;44.624;20.378;2024-03-02T05:29:52;8.47;89.56
69393;SHT31;56582;44.624;20.378;2024-03-02T05:32:17;8.60;89.26
69393;SHT31;56582;44.624;20.378;2024-03-02T05:34:43;8.63;90.20
69393;SHT31;56582;44.624;20.378;2024-03-02T05:37:08;8.60;89.83
69393;SHT31;56582;44.624;20.378;2024-03-02T05:39:34;8.65;89.36
69393;SHT31;56582;44.624;20.378;2024-03-02T05:41:59;8.64;89.49
69393;SHT31;56582;44.624;20.378;2024-03-02T05:44:25;8.68;89.34
69393;SHT31;56582;44.624;20.378;2024-03-02T05:46:50;8.70;89.47
69393;SHT31;56582;44.624;20.378;2024-03-02T05:49:16;8.70;89.41
69393;SHT31;56582;44.624;20.378;2024-03-02T05:51:41;8.75;89.33
69393;SHT31;56582;44.624;20.378;2024-03-02T05:54:07;8.78;89.74
69393;SHT31;56582;44.624;20.378;2024-03-02T05:56:32;8.74;89.32
69393;SHT31;56582;44.624;20.378;2024-03-02T05:58:58;8.80;89.08
69393;SHT31;56582;44.624;20.378;2024-03-02T06:04:05;8.84;89.09
69393;SHT31;56582;44.624;20.378;2024-03-02T06:06:31;8.85;88.71
69393;SHT31;56582;44.624;20.378;2024-03-02T06:09:02;8.85;88.80
69393;SHT31;56582;44.624;20.378;2024-03-02T06:11:30;8.88;88.57
69393;SHT31;56582;44.624;20.378;2024-03-02T06:13:56;8.92;88.05
69393;SHT31;56582;44.624;20.378;2024-03-02T06:16:21;8.91;88.17
69393;SHT31;56582;44.624;20.378;2024-03-02T06:18:47;8.98;88.08
69393;SHT31;56582;44.624;20.378;2024-03-02T06:21:12;9.01;87.87
69393;SHT31;56582;44.624;20.378;2024-03-02T06:23:38;8.95;87.93
69393;SHT31;56582;44.624;20.378;2024-03-02T06:26:03;9.05;87.88
69393;SHT31;56582;44.624;20.378;2024-03-02T06:28:29;9.05;88.08
69393;SHT31;56582;44.624;20.378;2024-03-02T06:30:55;9.10;87.91
69393;SHT31;56582;44.624;20.378;2024-03-02T06:33:20;9.18;87.28
69393;SHT31;56582;44.624;20.378;2024-03-02T06:35:46;9.23;87.12
69393;SHT31;56582;44.624;20.378;2024-03-02T06:38:11;9.19;87.30
69393;SHT31;56582;44.624;20.378;2024-03-02T06:40:37;9.23;87.07
69393;SHT31;56582;44.624;20.378;2024-03-02T06:43:06;9.31;86.53
69393;SHT31;56582;44.624;20.378;2024-03-02T06:45:31;9.25;86.95
69393;SHT31;56582;44.624;20.378;2024-03-02T06:47:59;9.25;86.85
69393;SHT31;56582;44.624;20.378;2024-03-02T06:50:24;9.33;86.35
69393;SHT31;56582;44.624;20.378;2024-03-02T06:52:50;9.32;86.48
69393;SHT31;56582;44.624;20.378;2024-03-02T06:55:15;9.44;86.32
69393;SHT31;56582;44.624;20.378;2024-03-02T06:57:41;9.47;85.76
69393;SHT31;56582;44.624;20.378;2024-03-02T07:00:07;9.53;85.15
69393;SHT31;56582;44.624;20.378;2024-03-02T07:02:35;9.59;85.59
69393;SHT31;56582;44.624;20.378;2024-03-02T07:05:01;9.59;84.99
69393;SHT31;56582;44.624;20.378;2024-03-02T07:07:27;9.67;84.98
69393;SHT31;56582;44.624;20.378;2024-03-02T07:09:52;9.74;84.73
69393;SHT31;56582;44.624;20.378;2024-03-02T07:12:18;9.80;84.54
69393;SHT31;56582;44.624;20.378;2024-03-02T07:14:43;9.93;84.10
69393;SHT31;56582;44.624;20.378;2024-03-02T07:17:28;10.10;84.21
69393;SHT31;56582;44.624;20.378;2024-03-02T07:19:53;10.15;83.43
69393;SHT31;56582;44.624;20.378;2024-03-02T07:22:19;10.22;83.45
69393;SHT31;56582;44.624;20.378;2024-03-02T07:24:45;10.35;83.35
69393;SHT31;56582;44.624;20.378;2024-03-02T07:27:13;10.48;83.11
69393;SHT31;56582;44.624;20.378;2024-03-02T07:29:39;10.59;82.43
69393;SHT31;56582;44.624;20.378;2024-03-02T07:32:08;10.72;81.99
69393;SHT31;56582;44.624;20.378;2024-03-02T07:34:34;10.90;81.98
69393;SHT31;56582;44.624;20.378;2024-03-02T07:37:00;10.95;81.10
69393;SHT31;56582;44.624;20.378;2024-03-02T07:39:25;11.04;80.50
69393;SHT31;56582;44.624;20.378;2024-03-02T07:41:51;11.16;80.52
69393;SHT31;56582;44.624;20.378;2024-03-02T07:44:17;11.24;79.40
69393;SHT31;56582;44.624;20.378;2024-03-02T07:46:45;11.31;80.14
69393;SHT31;56582;44.624;20.378;2024-03-02T07:49:20;11.32;79.96
69393;SHT31;56582;44.624;20.378;2024-03-02T07:51:45;11.38;79.22
69393;SHT31;56582;44.624;20.378;2024-03-02T07:54:11;11.38;79.60
69393;SHT31;56582;44.624;20.378;2024-03-02T07:56:37;11.41;79.15
69393;SHT31;56582;44.624;20.378;2024-03-02T07:59:03;11.46;78.98
69393;SHT31;56582;44.624;20.378;2024-03-02T08:01:32;11.51;78.49
69393;SHT31;56582;44.624;20.378;2024-03-02T08:03:58;11.64;78.75
69393;SHT31;56582;44.624;20.378;2024-03-02T08:06:25;11.74;77.98
69393;SHT31;56582;44.624;20.378;2024-03-02T08:08:54;11.79;78.15
69393;SHT31;56582;44.624;20.378;2024-03-02T08:11:20;11.96;77.98
69393;SHT31;56582;44.624;20.378;2024-03-02T08:13:46;11.97;76.40
69393;SHT31;56582;44.624;20.378;2024-03-02T08:16:11;11.90;77.21
69393;SHT31;56582;44.624;20.378;2024-03-02T08:18:37;11.78;77.65
69393;SHT31;56582;44.624;20.378;2024-03-02T08:21:03;11.59;77.03
69393;SHT31;56582;44.624;20.378;2024-03-02T08:23:28;11.46;77.81
69393;SHT31;56582;44.624;20.378;2024-03-02T08:25:55;11.31;78.68
69393;SHT31;56582;44.624;20.378;2024-03-02T08:28:20;11.34;78.29
69393;SHT31;56582;44.624;20.378;2024-03-02T08:30:46;11.37;78.33
69393;SHT31;56582;44.624;20.378;2024-03-02T08:33:11;11.41;78.71
69393;SHT31;56582;44.624;20.378;2024-03-02T08:35:37;11.51;79.26
69393;SHT31;56582;44.624;20.378;2024-03-02T08:38:03;11.69;78.81
69393;SHT31;56582;44.624;20.378;2024-03-02T08:40:30;11.85;79.16
69393;SHT31;56582;44.624;20.378;2024-03-02T08:42:55;11.99;78.39
69393;SHT31;56582;44.624;20.378;2024-03-02T08:45:21;12.16;77.75
69393;SHT31;56582;44.624;20.378;2024-03-02T08:47:47;12.32;77.79
69393;SHT31;56582;44.624;20.378;2024-03-02T08:50:13;12.51;77.39
69393;SHT31;56582;44.624;20.378;2024-03-02T08:52:38;12.60;76.13
69393;SHT31;56582;44.624;20.378;2024-03-02T08:55:04;12.48;77.06
69393;SHT31;56582;44.624;20.378;2024-03-02T08:57:31;12.60;77.07
69393;SHT31;56582;44.624;20.378;2024-03-02T08:59:57;12.77;75.95
69393;SHT31;56582;44.624;20.378;2024-03-02T09:02:23;12.88;76.43
69393;SHT31;56582;44.624;20.378;2024-03-02T09:04:49;12.98;76.09
69393;SHT31;56582;44.624;20.378;2024-03-02T09:07:14;13.12;75.73
69393;SHT31;56582;44.624;20.378;2024-03-02T09:09:40;13.18;75.30
69393;SHT31;56582;44.624;20.378;2024-03-02T09:12:07;13.19;74.89
69393;SHT31;56582;44.624;20.378;2024-03-02T09:14:33;13.35;75.37
69393;SHT31;56582;44.624;20.378;2024-03-02T09:16:58;13.60;75.62
69393;SHT31;56582;44.624;20.378;2024-03-02T09:19:24;13.73;74.20
69393;SHT31;56582;44.624;20.378;2024-03-02T09:21:49;13.70;73.70
69393;SHT31;56582;44.624;20.378;2024-03-02T09:24:15;13.71;73.54
69393;SHT31;56582;44.624;20.378;2024-03-02T09:26:41;13.85;73.78
69393;SHT31;56582;44.624;20.378;2024-03-02T09:29:06;13.92;74.10
69393;SHT31;56582;44.624;20.378;2024-03-02T09:31:32;14.12;73.50
69393;SHT31;56582;44.624;20.378;2024-03-02T09:33:58;14.28;72.27
69393;SHT31;56582;44.624;20.378;2024-03-02T09:36:23;14.35;73.18
69393;SHT31;56582;44.624;20.378;2024-03-02T09:38:49;14.46;73.21
69393;SHT31;56582;44.624;20.378;2024-03-02T09:41:15;14.55;71.82
69393;SHT31;56582;44.624;20.378;2024-03-02T09:43:42;14.62;71.99
69393;SHT31;56582;44.624;20.378;2024-03-02T09:46:09;14.56;71.55
69393;SHT31;56582;44.624;20.378;2024-03-02T09:48:35;14.63;71.18
69393;SHT31;56582;44.624;20.378;2024-03-02T09:51:01;14.46;72.29
69393;SHT31;56582;44.624;20.378;2024-03-02T09:53:32;14.55;72.19
69393;SHT31;56582;44.624;20.378;2024-03-02T09:55:59;14.60;71.77
69393;SHT31;56582;44.624;20.378;2024-03-02T09:58:26;14.63;72.12
69393;SHT31;56582;44.624;20.378;2024-03-02T10:00:52;14.76;71.40
69393;SHT31;56582;44.624;20.378;2024-03-02T10:03:20;14.96;71.29
69393;SHT31;56582;44.624;20.378;2024-03-02T10:05:48;15.11;72.15
69393;SHT31;56582;44.624;20.378;2024-03-02T10:08:13;15.10;68.60
69393;SHT31;56582;44.624;20.378;2024-03-02T10:10:43;15.03;70.68
69393;SHT31;56582;44.624;20.378;2024-03-02T10:13:12;15.08;70.90
69393;SHT31;56582;44.624;20.378;2024-03-02T10:15:39;15.03;69.49
69393;SHT31;56582;44.624;20.378;2024-03-02T10:18:11;15.15;68.89
69393;SHT31;56582;44.624;20.378;2024-03-02T10:20:40;15.06;70.77
69393;SHT31;56582;44.624;20.378;2024-03-02T10:23:17;15.21;69.95
69393;SHT31;56582;44.624;20.378;2024-03-02T10:25:44;15.34;71.13
69393;SHT31;56582;44.624;20.378;2024-03-02T10:28:11;15.52;69.83
69393;SHT31;56582;44.624;20.378;2024-03-02T10:30:36;15.59;69.40
69393;SHT31;56582;44.624;20.378;2024-03-02T10:33:03;15.45;69.18
69393;SHT31;56582;44.624;20.378;2024-03-02T10:35:30;15.51;69.81
69393;SHT31;56582;44.624;20.378;2024-03-02T10:37:59;15.62;68.49
69393;SHT31;56582;44.624;20.378;2024-03-02T10:40:26;15.69;69.72
69393;SHT31;56582;44.624;20.378;2024-03-02T10:42:52;15.79;69.12
69393;SHT31;56582;44.624;20.378;2024-03-02T10:45:20;15.92;70.03
69393;SHT31;56582;44.624;20.378;2024-03-02T10:47:49;15.83;68.95
69393;SHT31;56582;44.624;20.378;2024-03-02T10:50:16;15.86;68.32
69393;SHT31;56582;44.624;20.378;2024-03-02T10:52:42;15.97;67.79
69393;SHT31;56582;44.624;20.378;2024-03-02T10:55:09;15.97;67.06
69393;SHT31;56582;44.624;20.378;2024-03-02T10:57:45;15.93;66.48
69393;SHT31;56582;44.624;20.378;2024-03-02T11:00:15;15.90;67.93
69393;SHT31;56582;44.624;20.378;2024-03-02T11:02:51;15.94;67.51
69393;SHT31;56582;44.624;20.378;2024-03-02T11:05:28;16.21;66.86
69393;SHT31;56582;44.624;20.378;2024-03-02T11:08:01;16.27;67.00
69393;SHT31;56582;44.624;20.378;2024-03-02T11:10:41;16.07;66.16
69393;SHT31;56582;44.624;20.378;2024-03-02T11:13:12;15.90;65.17
69393;SHT31;56582;44.624;20.378;2024-03-02T11:15:40;15.73;67.79
69393;SHT31;56582;44.624;20.378;2024-03-02T11:18:11;15.81;67.77
69393;SHT31;56582;44.624;20.378;2024-03-02T11:20:39;15.81;67.79
69393;SHT31;56582;44.624;20.378;2024-03-02T11:23:06;15.89;67.75
69393;SHT31;56582;44.624;20.378;2024-03-02T11:25:33;15.99;66.71
69393;SHT31;56582;44.624;20.378;2024-03-02T11:28:01;15.96;67.96
69393;SHT31;56582;44.624;20.378;2024-03-02T11:33:06;15.81;67.13
69393;SHT31;56582;44.624;20.378;2024-03-02T11:35:41;15.83;67.63
69393;SHT31;56582;44.624;20.378;2024-03-02T11:38:14;15.78;68.51
69393;SHT31;56582;44.624;20.378;2024-03-02T11:40:40;16.00;67.71
69393;SHT31;56582;44.624;20.378;2024-03-02T11:43:07;16.24;68.37
69393;SHT31;56582;44.624;20.378;2024-03-02T11:45:35;16.48;66.37
69393;SHT31;56582;44.624;20.378;2024-03-02T11:48:06;16.62;67.97
69393;SHT31;56582;44.624;20.378;2024-03-02T11:50:51;16.58;66.23
69393;SHT31;56582;44.624;20.378;2024-03-02T11:53:19;16.52;65.29
69393;SHT31;56582;44.624;20.378;2024-03-02T11:55:45;16.78;65.32
69393;SHT31;56582;44.624;20.378;2024-03-02T11:58:15;16.88;64.00
69393;SHT31;56582;44.624;20.378;2024-03-02T12:00:56;16.82;65.68
69393;SHT31;56582;44.624;20.378;2024-03-02T12:03:23;16.83;62.84
69393;SHT31;56582;44.624;20.378;2024-03-02T12:05:54;17.00;64.93
69393;SHT31;56582;44.624;20.378;2024-03-02T12:08:21;17.03;66.91
69393;SHT31;56582;44.624;20.378;2024-03-02T12:10:58;16.95;64.98
69393;SHT31;56582;44.624;20.378;2024-03-02T12:13:23;17.22;66.05
69393;SHT31;56582;44.624;20.378;2024-03-02T12:15:53;17.12;66.10
69393;SHT31;56582;44.624;20.378;2024-03-02T12:18:20;17.64;68.06
69393;SHT31;56582;44.624;20.378;2024-03-02T12:20:49;17.43;65.36
69393;SHT31;56582;44.624;20.378;2024-03-02T12:23:20;17.30;62.43
69393;SHT31;56582;44.624;20.378;2024-03-02T12:25:46;17.51;65.90
69393;SHT31;56582;44.624;20.378;2024-03-02T12:28:13;17.47;62.17
69393;SHT31;56582;44.624;20.378;2024-03-02T12:30:39;17.33;62.48
69393;SHT31;56582;44.624;20.378;2024-03-02T12:33:05;17.46;66.91
69393;SHT31;56582;44.624;20.378;2024-03-02T12:35:30;17.81;62.78
69393;SHT31;56582;44.624;20.378;2024-03-02T12:37:57;17.70;62.25
69393;SHT31;56582;44.624;20.378;2024-03-02T12:40:25;17.89;63.21
69393;SHT31;56582;44.624;20.378;2024-03-02T12:42:50;18.05;62.69
69393;SHT31;56582;44.624;20.378;2024-03-02T12:45:17;18.47;64.77
69393;SHT31;56582;44.624;20.378;2024-03-02T12:47:52;18.33;55.80
69393;SHT31;56582;44.624;20.378;2024-03-02T12:50:18;18.28;62.89
69393;SHT31;56582;44.624;20.378;2024-03-02T12:52:51;18.47;60.34
69393;SHT31;56582;44.624;20.378;2024-03-02T12:55:17;18.50;58.28
69393;SHT31;56582;44.624;20.378;2024-03-02T12:57:43;18.18;57.71
69393;SHT31;56582;44.624;20.378;2024-03-02T13:00:10;18.36;55.64
69393;SHT31;56582;44.624;20.378;2024-03-02T13:02:39;18.21;55.93
69393;SHT31;56582;44.624;20.378;2024-03-02T13:05:07;18.08;59.16
69393;SHT31;56582;44.624;20.378;2024-03-02T13:07:37;18.26;61.58
69393;SHT31;56582;44.624;20.378;2024-03-02T13:10:05;18.40;58.57
69393;SHT31;56582;44.624;20.378;2024-03-02T13:12:34;18.30;58.86
69393;SHT31;56582;44.624;20.378;2024-03-02T13:15:00;18.02;58.51
69393;SHT31;56582;44.624;20.378;2024-03-02T13:17:29;17.81;57.42
69393;SHT31;56582;44.624;20.378;2024-03-02T13:19:56;17.87;59.77
69393;SHT31;56582;44.624;20.378;2024-03-02T13:22:23;18.09;60.36
69393;SHT31;56582;44.624;20.378;2024-03-02T13:24:51;18.06;58.94
69393;SHT31;56582;44.624;20.378;2024-03-02T13:27:17;17.79;55.45
69393;SHT31;56582;44.624;20.378;2024-03-02T13:29:47;17.66;60.16
69393;SHT31;56582;44.624;20.378;2024-03-02T13:32:14;17.58;59.30
69393;SHT31;56582;44.624;20.378;2024-03-02T13:34:41;17.71;61.46
69393;SHT31;56582;44.624;20.378;2024-03-02T13:37:07;17.89;59.88
69393;SHT31;56582;44.624;20.378;2024-03-02T13:39:33;18.04;59.57
69393;SHT31;56582;44.624;20.378;2024-03-02T13:42:09;18.05;60.33
69393;SHT31;56582;44.624;20.378;2024-03-02T13:44:36;17.78;57.05
69393;SHT31;56582;44.624;20.378;2024-03-02T13:47:03;17.70;59.97
69393;SHT31;56582;44.624;20.378;2024-03-02T13:49:30;17.92;60.46
69393;SHT31;56582;44.624;20.378;2024-03-02T13:52:05;18.15;60.88
69393;SHT31;56582;44.624;20.378;2024-03-02T13:54:45;17.79;58.34
69393;SHT31;56582;44.624;20.378;2024-03-02T13:57:11;17.70;59.02
69393;SHT31;56582;44.624;20.378;2024-03-02T13:59:38;17.70;59.73
69393;SHT31;56582;44.624;20.378;2024-03-02T14:02:08;17.85;62.02
69393;SHT31;56582;44.624;20.378;2024-03-02T14:04:35;17.92;61.05
69393;SHT31;56582;44.624;20.378;2024-03-02T14:07:04;17.97;60.38
69393;SHT31;56582;44.624;20.378;2024-03-02T14:09:36;17.89;60.24
69393;SHT31;56582;44.624;20.378;2024-03-02T14:12:03;17.71;58.27
69393;SHT31;56582;44.624;20.378;2024-03-02T14:14:30;17.75;56.84
69393;SHT31;56582;44.624;20.378;2024-03-02T14:16:56;17.61;59.86
69393;SHT31;56582;44.624;20.378;2024-03-02T14:19:27;17.44;61.58
69393;SHT31;56582;44.624;20.378;2024-03-02T14:21:53;17.51;65.14
69393;SHT31;56582;44.624;20.378;2024-03-02T14:24:19;17.61;58.99
69393;SHT31;56582;44.624;20.378;2024-03-02T14:26:49;17.60;59.74
69393;SHT31;56582;44.624;20.378;2024-03-02T14:29:14;17.43;58.65
69393;SHT31;56582;44.624;20.378;2024-03-02T14:31:40;17.58;66.89
69393;SHT31;56582;44.624;20.378;2024-03-02T14:34:05;17.58;60.59
69393;SHT31;56582;44.624;20.378;2024-03-02T14:36:31;17.37;60.19
69393;SHT31;56582;44.624;20.378;2024-03-02T14:38:57;17.50;61.23
69393;SHT31;56582;44.624;20.378;2024-03-02T14:41:23;17.31;60.07
69393;SHT31;56582;44.624;20.378;2024-03-02T14:43:51;17.30;64.52
69393;SHT31;56582;44.624;20.378;2024-03-02T14:46:17;17.36;59.24
69393;SHT31;56582;44.624;20.378;2024-03-02T14:48:46;17.09;59.00
69393;SHT31;56582;44.624;20.378;2024-03-02T14:51:13;17.41;67.23
69393;SHT31;56582;44.624;20.378;2024-03-02T14:53:39;17.19;59.97
69393;SHT31;56582;44.624;20.378;2024-03-02T14:56:05;16.91;58.77
69393;SHT31;56582;44.624;20.378;2024-03-02T14:58:33;16.73;62.21
69393;SHT31;56582;44.624;20.378;2024-03-02T15:01:01;16.62;60.32
69393;SHT31;56582;44.624;20.378;2024-03-02T15:03:26;16.52;63.55
69393;SHT31;56582;44.624;20.378;2024-03-02T15:05:53;16.52;62.77
69393;SHT31;56582;44.624;20.378;2024-03-02T15:08:19;16.27;63.58
69393;SHT31;56582;44.624;20.378;2024-03-02T15:10:44;16.20;64.45
69393;SHT31;56582;44.624;20.378;2024-03-02T15:13:11;16.04;65.41
69393;SHT31;56582;44.624;20.378;2024-03-02T15:15:38;15.82;65.50
69393;SHT31;56582;44.624;20.378;2024-03-02T15:18:05;15.51;66.06
69393;SHT31;56582;44.624;20.378;2024-03-02T15:20:35;15.52;66.98
69393;SHT31;56582;44.624;20.378;2024-03-02T15:23:01;15.45;66.30
69393;SHT31;56582;44.624;20.378;2024-03-02T15:25:40;15.36;66.94
69393;SHT31;56582;44.624;20.378;2024-03-02T15:28:06;15.35;66.89
69393;SHT31;56582;44.624;20.378;2024-03-02T15:30:32;15.44;68.94